createdAt,value
2018-11-23T00:04:25.842Z,47.50
2018-11-23T00:09:44.316Z,49.30
2018-11-23T00:15:02.852Z,48.00
2018-11-23T00:20:22.648Z,50.40
2018-11-23T00:25:42.185Z,47.17
2018-11-23T00:30:59.729Z,40.23
2018-11-23T00:36:18.192Z,45.00
2018-11-23T00:41:36.987Z,51.10
2018-11-23T00:46:55.535Z,44.33
2018-11-23T00:52:14.064Z,47.53
2018-11-23T00:57:32.640Z,43.17
2018-11-23T01:02:51.268Z,44.90
2018-11-23T01:08:09.816Z,51.87
2018-11-23T01:13:28.337Z,51.57
2018-11-23T01:18:46.904Z,51.20
2018-11-23T01:24:05.520Z,44.17
2018-11-23T01:29:24.009Z,45.83
2018-11-23T01:34:42.543Z,47.57
2018-11-23T01:40:01.071Z,51.97
2018-11-23T01:45:19.593Z,47.95
2018-11-23T01:50:38.196Z,46.97
2018-11-23T01:55:56.774Z,48.45
2018-11-23T02:01:15.298Z,44.10
2018-11-23T02:06:33.794Z,44.37
2018-11-23T02:11:52.378Z,48.67
2018-11-23T02:17:10.995Z,46.98
2018-11-23T02:22:29.545Z,45.17
2018-11-23T02:27:48.003Z,54.03
2018-11-23T02:33:06.561Z,42.13
2018-11-23T02:38:25.077Z,50.03
2018-11-23T02:43:43.672Z,42.37
2018-11-23T02:49:02.167Z,49.70
2018-11-23T02:54:20.950Z,46.73
2018-11-23T02:59:39.517Z,47.50
2018-11-23T03:04:58.007Z,42.57
2018-11-23T03:10:17.155Z,43.87
2018-11-23T03:15:35.610Z,46.90
2018-11-23T03:20:54.149Z,48.27
2018-11-23T03:26:12.636Z,45.07
2018-11-23T03:31:31.219Z,48.70
2018-11-23T03:36:49.749Z,48.50
2018-11-23T03:42:08.364Z,52.37
2018-11-23T03:47:26.890Z,43.27
2018-11-23T03:52:45.660Z,49.00
2018-11-23T03:58:04.169Z,49.13
2018-11-23T04:03:22.663Z,51.53
2018-11-23T04:08:41.269Z,52.33
2018-11-23T04:13:59.763Z,59.23
2018-11-23T04:19:18.274Z,49.37
2018-11-23T04:24:36.759Z,58.57
2018-11-23T04:29:55.255Z,59.37
2018-11-23T04:35:15.089Z,57.60
2018-11-23T04:40:33.582Z,59.70
2018-11-23T04:45:52.279Z,53.13
2018-11-23T04:51:10.872Z,59.77
2018-11-23T04:56:29.416Z,57.13
2018-11-23T05:01:47.955Z,52.03
2018-11-23T05:07:06.455Z,60.37
2018-11-23T05:12:24.962Z,58.77
2018-11-23T05:17:43.696Z,62.47
2018-11-23T05:23:02.197Z,50.00
2018-11-23T05:28:20.788Z,51.87
2018-11-23T05:33:39.343Z,64.60
2018-11-23T05:38:57.839Z,59.17
2018-11-23T05:44:16.352Z,56.10
2018-11-23T05:49:34.839Z,63.27
2018-11-23T05:54:53.381Z,70.97
2018-11-23T06:00:14.936Z,60.67
2018-11-23T06:05:33.448Z,60.13
2018-11-23T06:10:51.974Z,70.40
2018-11-23T06:16:10.520Z,65.73
2018-11-23T06:21:29.068Z,60.23
2018-11-23T06:26:47.688Z,61.33
2018-11-23T06:32:16.241Z,59.87
2018-11-23T06:37:34.764Z,74.60
2018-11-23T06:42:53.269Z,63.63
2018-11-23T06:48:12.147Z,58.80
2018-11-23T06:53:30.665Z,58.57
2018-11-23T06:58:49.180Z,69.10
2018-11-23T07:04:07.665Z,70.33
2018-11-23T07:09:26.156Z,66.53
2018-11-23T07:14:44.679Z,71.80
2018-11-23T07:20:03.295Z,66.90
2018-11-23T07:25:21.814Z,54.15
2018-11-23T07:30:40.348Z,61.37
2018-11-23T07:35:59.288Z,78.15
2018-11-23T07:41:29.072Z,67.43
2018-11-23T07:46:47.652Z,69.63
2018-11-23T07:52:06.288Z,66.77
2018-11-23T07:57:24.748Z,73.33
2018-11-23T08:02:43.828Z,77.33
2018-11-23T08:08:02.332Z,73.80
2018-11-23T08:13:20.999Z,76.70
2018-11-23T08:18:39.546Z,70.30
2018-11-23T08:23:58.083Z,65.92
2018-11-23T08:29:16.628Z,65.73
2018-11-23T08:34:35.133Z,70.10
2018-11-23T08:39:53.642Z,68.30
2018-11-23T08:45:13.912Z,65.08
2018-11-23T08:50:32.489Z,65.33
2018-11-23T08:55:51.015Z,69.60
2018-11-23T09:01:09.544Z,61.33
2018-11-23T09:06:28.072Z,54.60
2018-11-23T09:11:46.624Z,64.13
2018-11-23T09:17:05.337Z,61.40
2018-11-23T09:22:23.869Z,62.60
2018-11-23T09:27:42.496Z,59.77
2018-11-23T09:33:01.166Z,60.33
2018-11-23T09:38:19.688Z,64.30
2018-11-23T09:43:38.283Z,61.27
2018-11-23T09:48:56.864Z,54.03
2018-11-23T09:54:15.665Z,56.93
2018-11-23T09:59:34.147Z,57.03
2018-11-23T10:04:53.624Z,49.93
2018-11-23T10:10:13.103Z,55.20
2018-11-23T10:15:32.499Z,51.73
2018-11-23T10:20:51.003Z,43.30
2018-11-23T10:26:09.515Z,50.93
2018-11-23T10:31:28.214Z,46.80
2018-11-23T10:36:48.023Z,45.07
2018-11-23T10:42:07.275Z,49.63
2018-11-23T10:47:25.730Z,44.20
2018-11-23T10:52:44.352Z,41.23
2018-11-23T10:58:02.920Z,40.90
2018-11-23T11:03:37.649Z,32.90
2018-11-23T11:08:56.182Z,36.07
2018-11-23T11:14:14.790Z,34.40
2018-11-23T11:19:33.266Z,38.07
2018-11-23T11:24:51.733Z,30.87
2018-11-23T11:30:12.364Z,33.23
2018-11-23T11:35:30.909Z,32.67
2018-11-23T11:40:49.426Z,39.43
2018-11-23T11:46:08.404Z,36.77
2018-11-23T11:51:27.055Z,39.85
2018-11-23T11:56:45.571Z,32.27
2018-11-23T12:02:06.683Z,37.40
2018-11-23T12:07:22.712Z,43.73
2018-11-23T12:12:41.265Z,43.13
2018-11-23T12:17:59.795Z,49.13
2018-11-23T12:23:18.277Z,39.77
2018-11-23T12:28:36.776Z,50.93
2018-11-23T12:33:55.278Z,38.93
2018-11-23T12:39:13.792Z,39.20
2018-11-23T12:44:32.333Z,47.17
2018-11-23T12:49:50.833Z,42.00
2018-11-23T12:55:10.036Z,45.27
2018-11-23T13:00:29.460Z,40.60
2018-11-23T13:05:48.033Z,39.93
2018-11-23T13:11:06.555Z,33.90
2018-11-23T13:16:25.466Z,45.20
2018-11-23T13:21:44.036Z,40.10
2018-11-23T13:27:02.574Z,39.77
2018-11-23T13:32:21.100Z,39.40
2018-11-23T13:37:39.598Z,36.33
2018-11-23T13:42:59.053Z,35.13
2018-11-23T13:48:20.091Z,27.30
2018-11-23T13:53:36.052Z,17.57
2018-11-23T13:58:54.603Z,14.70
2018-11-23T14:04:13.120Z,17.00
2018-11-23T14:09:31.637Z,15.10
2018-11-23T14:14:50.088Z,15.70
2018-11-23T14:20:10.653Z,13.10
2018-11-23T14:25:30.805Z,13.87
2018-11-23T14:30:49.420Z,25.87
2018-11-23T14:36:07.947Z,18.63
2018-11-23T14:41:26.739Z,36.60
2018-11-23T14:46:45.436Z,32.87
2018-11-23T14:52:03.961Z,38.13
2018-11-23T14:57:22.478Z,47.13
2018-11-23T15:02:41.199Z,41.37
2018-11-23T15:07:59.754Z,37.97
2018-11-23T15:13:18.315Z,44.57
2018-11-23T15:18:36.811Z,40.43
2018-11-23T15:23:55.389Z,43.47
2018-11-23T15:29:14.292Z,49.20
2018-11-23T15:34:32.781Z,38.60
2018-11-23T15:39:51.244Z,26.20
2018-11-23T15:45:13.082Z,20.07
2018-11-23T15:50:33.806Z,17.77
2018-11-23T15:55:52.449Z,17.73
2018-11-23T16:01:11.016Z,16.07
2018-11-23T16:06:29.532Z,17.47
2018-11-23T16:11:48.070Z,16.07
2018-11-23T16:17:06.586Z,22.87
2018-11-23T16:22:25.060Z,26.70
2018-11-23T16:27:44.659Z,24.03
2018-11-23T16:33:04.508Z,30.00
2018-11-23T16:38:24.085Z,31.53
2018-11-23T16:43:42.581Z,32.40
2018-11-23T16:49:01.062Z,24.77
2018-11-23T16:54:19.624Z,30.27
2018-11-23T16:59:38.225Z,31.65
2018-11-23T17:04:56.760Z,31.27
2018-11-23T17:10:16.468Z,26.20
2018-11-23T17:15:35.063Z,29.27
2018-11-23T17:20:53.822Z,37.03
2018-11-23T17:26:12.323Z,34.80
2018-11-23T17:31:30.868Z,30.23
2018-11-23T17:36:49.392Z,28.57
2018-11-23T17:42:07.918Z,32.57
2018-11-23T17:47:26.417Z,32.10
2018-11-23T17:52:45.495Z,30.97
2018-11-23T17:58:04.127Z,32.30
2018-11-23T18:08:48.680Z,43.20
2018-11-23T18:14:07.512Z,34.83
2018-11-23T18:19:26.512Z,29.72
2018-11-23T18:24:45.487Z,25.17
2018-11-23T18:30:05.078Z,31.60
2018-11-23T18:35:24.110Z,36.33
2018-11-23T18:40:42.718Z,37.07
2018-11-23T18:46:01.247Z,34.20
2018-11-23T18:51:19.768Z,33.37
2018-11-23T18:56:38.379Z,28.87
2018-11-23T19:01:57.019Z,44.27
2018-11-23T19:07:15.578Z,45.97
2018-11-23T19:12:34.192Z,41.27
2018-11-23T19:17:52.793Z,32.07
2018-11-23T19:23:11.548Z,29.32
2018-11-23T19:28:30.366Z,65.97
2018-11-23T19:33:48.971Z,107.50
2018-11-23T19:39:08.601Z,102.70
2018-11-23T19:44:27.154Z,63.03
2018-11-23T19:49:45.685Z,39.13
2018-11-23T19:55:05.226Z,50.13
2018-11-23T20:00:24.945Z,36.00
2018-11-23T20:05:43.561Z,38.30
2018-11-23T20:11:02.161Z,37.00
2018-11-23T20:16:20.715Z,47.57
2018-11-23T20:21:39.374Z,49.97
2018-11-23T20:26:58.216Z,36.90
2018-11-23T20:32:16.840Z,37.30
2018-11-23T20:37:36.097Z,33.57
2018-11-23T20:42:54.839Z,33.13
2018-11-23T20:48:13.523Z,34.73
2018-11-23T20:53:32.356Z,38.00
2018-11-23T20:58:51.072Z,32.70
2018-11-23T21:04:09.632Z,28.07
2018-11-23T21:09:31.215Z,40.28
2018-11-23T21:14:47.095Z,31.40
2018-11-23T21:20:06.789Z,28.83
2018-11-23T21:25:25.354Z,37.63
2018-11-23T21:30:43.869Z,44.60
2018-11-23T21:36:02.368Z,42.87
2018-11-23T21:41:20.916Z,39.63
2018-11-23T21:46:39.629Z,30.60
2018-11-23T21:51:58.136Z,30.43
2018-11-23T21:57:16.684Z,26.73
2018-11-23T22:02:35.241Z,26.50
2018-11-23T22:07:53.761Z,34.77
2018-11-23T22:13:12.257Z,63.33
2018-11-23T22:18:30.751Z,38.57
2018-11-23T22:23:49.240Z,31.63
2018-11-23T22:29:07.721Z,33.30
2018-11-23T22:34:26.328Z,43.67
2018-11-23T22:39:44.877Z,37.97
2018-11-23T22:45:03.428Z,35.50
2018-11-23T22:50:23.761Z,25.77
2018-11-23T22:55:42.287Z,34.17
2018-11-23T23:01:02.993Z,27.50
2018-11-23T23:06:21.479Z,29.73
2018-11-23T23:11:39.975Z,27.75
2018-11-23T23:16:58.615Z,28.73
2018-11-23T23:22:17.104Z,29.73
2018-11-23T23:27:35.634Z,30.87
2018-11-23T23:32:54.133Z,22.07
2018-11-23T23:38:12.647Z,25.33
2018-11-23T23:43:31.169Z,25.62
2018-11-23T23:48:49.690Z,27.03
2018-11-23T23:54:08.192Z,25.62
2018-11-23T23:59:26.667Z,26.43
